Kezdőlap
METAR-TAF:

METAR-TAF

Repülőterek :

Honiara, Guadalcanal, Salamon-szigetek

földrajzi szélesség: 09-25S, földrajzi hosszúság: 160-03E, magasság: 8 m

Jelenlegi meteorológiai megfigyelések

A jelentés 5 órával és 12 perccel ezelõtt készült, 07:00 UTC
Dél-délnyugati szél 5 kt
Hőmérséklet
Légköri nyomás 1011 hPa
Látótávolság 10 km, vagy több
Szórványos felhőzet 1500 lábon
Kevés felhő 1600 lábon, Cumulonimbus.
Szórványos felhőzet 2700 lábon
enyhe záporok,

METAR: AGGH 280700Z 20005KT 9999 -SHRA SCT015 FEW016CB SCT027 BKN10025/25 Q1011

Idő: 23:12 (12:12 UTC)

Előrejelzés

A jelentés 52 perccel ezelõtt készült, 11:20 UTC
Az előrejelzés 28-én 12 óra UTC és 29-én 12 óra UTC között érvényes
Északi szél kt
Látótávolság: 1010 m
Kevés felhő 1500 lábon
Szakadozott felhőzet 10000 lábon

TAF: AGGH 281120Z 2812/2912 00000KT 9999 FEW015 BKN100 T 25 24 24 24 Q1011 1009 1008 1010 TAF3

Meteorológiai megfigyelések és előrejelzések több, mint 4000 repülőtéren (METAR és TAF jelentéseket).

A térképen piros és sárga pontok jelzik az elérhető meteorológiai állomásokat.

Mozgassa az egeret a pont fölött, hogy megjelenjen az állomás neve.

Azután kattintson az időjárási megfigyelések és előrejelzések megtekintéséhez.

A térkép megváltoztatása: kattintson a fekete keresztel jelölt zöld gombra ráközelítéshez, a vonallal jelölt zöld gombra távolításhoz, vagy a zöld nyilakra a szomszédos térképek eléréséhez.


METAR-TAF: